sensor_id;sensor_type;location;lat;lon;timestamp;P1;durP1;ratioP1;P2;durP2;ratioP2
21018;SDS011;10667;51.056;3.732;2022-09-09T00:02:22;7.68;;;2.30;;
21018;SDS011;10667;51.056;3.732;2022-09-09T00:05:00;9.02;;;2.53;;
21018;SDS011;10667;51.056;3.732;2022-09-09T00:10:21;8.75;;;2.30;;
21018;SDS011;10667;51.056;3.732;2022-09-09T00:13:02;9.65;;;2.28;;
21018;SDS011;10667;51.056;3.732;2022-09-09T00:18:40;5.55;;;2.03;;
21018;SDS011;10667;51.056;3.732;2022-09-09T00:21:18;4.32;;;2.05;;
21018;SDS011;10667;51.056;3.732;2022-09-09T00:23:58;5.43;;;1.73;;
21018;SDS011;10667;51.056;3.732;2022-09-09T00:26:35;6.60;;;2.10;;
21018;SDS011;10667;51.056;3.732;2022-09-09T00:31:33;5.63;;;2.00;;
21018;SDS011;10667;51.056;3.732;2022-09-09T00:34:09;4.13;;;2.22;;
21018;SDS011;10667;51.056;3.732;2022-09-09T00:36:42;4.65;;;2.05;;
21018;SDS011;10667;51.056;3.732;2022-09-09T00:45:26;5.22;;;2.25;;
21018;SDS011;10667;51.056;3.732;2022-09-09T00:48:05;3.30;;;1.75;;
21018;SDS011;10667;51.056;3.732;2022-09-09T00:56:21;5.88;;;2.08;;
21018;SDS011;10667;51.056;3.732;2022-09-09T00:59:07;7.85;;;2.28;;
21018;SDS011;10667;51.056;3.732;2022-09-09T01:01:53;4.95;;;2.10;;
21018;SDS011;10667;51.056;3.732;2022-09-09T01:04:23;10.77;;;2.45;;
21018;SDS011;10667;51.056;3.732;2022-09-09T01:06:58;7.90;;;2.40;;
21018;SDS011;10667;51.056;3.732;2022-09-09T01:14:50;6.78;;;1.98;;
21018;SDS011;10667;51.056;3.732;2022-09-09T01:17:24;5.90;;;2.15;;
21018;SDS011;10667;51.056;3.732;2022-09-09T01:25:10;5.93;;;2.08;;
21018;SDS011;10667;51.056;3.732;2022-09-09T01:27:51;5.43;;;1.67;;
21018;SDS011;10667;51.056;3.732;2022-09-09T01:30:20;5.45;;;1.60;;
21018;SDS011;10667;51.056;3.732;2022-09-09T01:32:48;9.35;;;2.00;;
21018;SDS011;10667;51.056;3.732;2022-09-09T01:35:23;7.53;;;1.83;;
21018;SDS011;10667;51.056;3.732;2022-09-09T01:37:58;6.75;;;1.90;;
21018;SDS011;10667;51.056;3.732;2022-09-09T01:40:24;6.40;;;1.77;;
21018;SDS011;10667;51.056;3.732;2022-09-09T01:42:51;7.03;;;1.65;;
21018;SDS011;10667;51.056;3.732;2022-09-09T01:45:17;5.68;;;1.55;;
21018;SDS011;10667;51.056;3.732;2022-09-09T01:47:44;9.98;;;1.88;;
21018;SDS011;10667;51.056;3.732;2022-09-09T01:50:11;5.68;;;1.67;;
21018;SDS011;10667;51.056;3.732;2022-09-09T01:52:41;5.05;;;1.67;;
21018;SDS011;10667;51.056;3.732;2022-09-09T01:55:08;8.98;;;1.70;;
21018;SDS011;10667;51.056;3.732;2022-09-09T02:00:22;9.40;;;2.22;;
21018;SDS011;10667;51.056;3.732;2022-09-09T02:08:43;8.80;;;2.08;;
21018;SDS011;10667;51.056;3.732;2022-09-09T02:11:14;5.15;;;1.77;;
21018;SDS011;10667;51.056;3.732;2022-09-09T02:13:45;6.47;;;1.92;;
21018;SDS011;10667;51.056;3.732;2022-09-09T02:18:58;4.90;;;1.73;;
21018;SDS011;10667;51.056;3.732;2022-09-09T02:21:29;10.85;;;2.22;;
21018;SDS011;10667;51.056;3.732;2022-09-09T02:23:56;6.50;;;1.60;;
21018;SDS011;10667;51.056;3.732;2022-09-09T02:26:25;9.15;;;2.22;;
21018;SDS011;10667;51.056;3.732;2022-09-09T02:28:52;6.97;;;1.70;;
21018;SDS011;10667;51.056;3.732;2022-09-09T02:31:24;7.97;;;2.00;;
21018;SDS011;10667;51.056;3.732;2022-09-09T02:33:51;8.43;;;2.20;;
21018;SDS011;10667;51.056;3.732;2022-09-09T02:36:23;8.52;;;2.72;;
21018;SDS011;10667;51.056;3.732;2022-09-09T02:38:51;10.27;;;2.45;;
21018;SDS011;10667;51.056;3.732;2022-09-09T02:41:30;9.70;;;2.60;;
21018;SDS011;10667;51.056;3.732;2022-09-09T02:44:01;8.48;;;2.42;;
21018;SDS011;10667;51.056;3.732;2022-09-09T02:46:31;9.80;;;2.45;;
21018;SDS011;10667;51.056;3.732;2022-09-09T02:49:01;10.25;;;2.33;;
21018;SDS011;10667;51.056;3.732;2022-09-09T02:54:34;8.07;;;2.15;;
21018;SDS011;10667;51.056;3.732;2022-09-09T02:57:12;11.13;;;2.50;;
21018;SDS011;10667;51.056;3.732;2022-09-09T02:59:46;9.85;;;2.47;;
21018;SDS011;10667;51.056;3.732;2022-09-09T03:02:12;9.98;;;2.65;;
21018;SDS011;10667;51.056;3.732;2022-09-09T03:04:38;13.45;;;2.75;;
21018;SDS011;10667;51.056;3.732;2022-09-09T03:07:04;10.93;;;2.28;;
21018;SDS011;10667;51.056;3.732;2022-09-09T03:09:33;12.18;;;2.53;;
21018;SDS011;10667;51.056;3.732;2022-09-09T03:11:59;9.40;;;2.50;;
21018;SDS011;10667;51.056;3.732;2022-09-09T03:14:25;12.15;;;2.83;;
21018;SDS011;10667;51.056;3.732;2022-09-09T03:16:51;12.02;;;2.22;;
21018;SDS011;10667;51.056;3.732;2022-09-09T03:19:18;7.50;;;2.55;;
21018;SDS011;10667;51.056;3.732;2022-09-09T03:21:44;9.77;;;2.40;;
21018;SDS011;10667;51.056;3.732;2022-09-09T03:24:12;10.15;;;2.28;;
21018;SDS011;10667;51.056;3.732;2022-09-09T03:26:45;11.88;;;3.22;;
21018;SDS011;10667;51.056;3.732;2022-09-09T03:29:11;13.57;;;2.67;;
21018;SDS011;10667;51.056;3.732;2022-09-09T03:31:38;12.60;;;2.42;;
21018;SDS011;10667;51.056;3.732;2022-09-09T03:34:05;10.02;;;2.25;;
21018;SDS011;10667;51.056;3.732;2022-09-09T03:36:32;10.90;;;2.40;;
21018;SDS011;10667;51.056;3.732;2022-09-09T03:38:58;12.05;;;2.85;;
21018;SDS011;10667;51.056;3.732;2022-09-09T03:41:25;13.77;;;3.05;;
21018;SDS011;10667;51.056;3.732;2022-09-09T03:43:51;12.32;;;3.30;;
21018;SDS011;10667;51.056;3.732;2022-09-09T03:46:18;10.23;;;2.30;;
21018;SDS011;10667;51.056;3.732;2022-09-09T03:48:45;10.60;;;2.88;;
21018;SDS011;10667;51.056;3.732;2022-09-09T03:51:11;12.15;;;2.78;;
21018;SDS011;10667;51.056;3.732;2022-09-09T03:53:37;17.88;;;3.65;;
21018;SDS011;10667;51.056;3.732;2022-09-09T03:56:05;8.43;;;2.28;;
21018;SDS011;10667;51.056;3.732;2022-09-09T03:58:32;11.63;;;2.50;;
21018;SDS011;10667;51.056;3.732;2022-09-09T04:01:00;11.05;;;2.50;;
21018;SDS011;10667;51.056;3.732;2022-09-09T04:03:31;12.45;;;3.08;;
21018;SDS011;10667;51.056;3.732;2022-09-09T04:06:00;12.73;;;3.53;;
21018;SDS011;10667;51.056;3.732;2022-09-09T04:08:28;9.68;;;2.55;;
21018;SDS011;10667;51.056;3.732;2022-09-09T04:10:56;15.52;;;3.25;;
21018;SDS011;10667;51.056;3.732;2022-09-09T04:13:23;14.48;;;2.67;;
21018;SDS011;10667;51.056;3.732;2022-09-09T04:15:53;11.82;;;3.35;;
21018;SDS011;10667;51.056;3.732;2022-09-09T04:18:23;10.95;;;2.95;;
21018;SDS011;10667;51.056;3.732;2022-09-09T04:20:55;8.32;;;2.70;;
21018;SDS011;10667;51.056;3.732;2022-09-09T04:23:25;14.25;;;2.95;;
21018;SDS011;10667;51.056;3.732;2022-09-09T04:25:57;10.23;;;2.95;;
21018;SDS011;10667;51.056;3.732;2022-09-09T04:28:24;12.15;;;2.88;;
21018;SDS011;10667;51.056;3.732;2022-09-09T04:30:52;9.13;;;2.90;;
21018;SDS011;10667;51.056;3.732;2022-09-09T04:33:18;16.23;;;3.25;;
21018;SDS011;10667;51.056;3.732;2022-09-09T04:35:50;20.55;;;4.90;;
21018;SDS011;10667;51.056;3.732;2022-09-09T04:38:18;12.10;;;2.80;;
21018;SDS011;10667;51.056;3.732;2022-09-09T04:40:47;16.88;;;3.80;;
21018;SDS011;10667;51.056;3.732;2022-09-09T04:43:14;11.85;;;3.15;;
21018;SDS011;10667;51.056;3.732;2022-09-09T04:45:40;9.90;;;2.60;;
21018;SDS011;10667;51.056;3.732;2022-09-09T04:48:06;18.05;;;3.45;;
21018;SDS011;10667;51.056;3.732;2022-09-09T04:50:35;11.73;;;2.83;;
21018;SDS011;10667;51.056;3.732;2022-09-09T04:53:01;10.95;;;3.30;;
21018;SDS011;10667;51.056;3.732;2022-09-09T04:55:28;12.55;;;2.70;;
21018;SDS011;10667;51.056;3.732;2022-09-09T04:57:58;8.98;;;2.70;;
21018;SDS011;10667;51.056;3.732;2022-09-09T05:00:32;24.27;;;3.42;;
21018;SDS011;10667;51.056;3.732;2022-09-09T05:03:03;13.73;;;3.75;;
21018;SDS011;10667;51.056;3.732;2022-09-09T05:05:30;14.90;;;3.15;;
21018;SDS011;10667;51.056;3.732;2022-09-09T05:08:02;13.63;;;3.35;;
21018;SDS011;10667;51.056;3.732;2022-09-09T05:10:29;16.77;;;3.28;;
21018;SDS011;10667;51.056;3.732;2022-09-09T05:12:55;16.60;;;3.70;;
21018;SDS011;10667;51.056;3.732;2022-09-09T05:15:21;17.17;;;3.97;;
21018;SDS011;10667;51.056;3.732;2022-09-09T05:17:47;9.88;;;3.10;;
21018;SDS011;10667;51.056;3.732;2022-09-09T05:20:13;20.25;;;4.13;;
21018;SDS011;10667;51.056;3.732;2022-09-09T05:22:39;12.65;;;3.50;;
21018;SDS011;10667;51.056;3.732;2022-09-09T05:25:05;12.05;;;3.67;;
21018;SDS011;10667;51.056;3.732;2022-09-09T05:27:33;18.95;;;3.50;;
21018;SDS011;10667;51.056;3.732;2022-09-09T05:29:59;14.10;;;3.42;;
21018;SDS011;10667;51.056;3.732;2022-09-09T05:32:25;12.55;;;3.38;;
21018;SDS011;10667;51.056;3.732;2022-09-09T05:34:51;16.65;;;3.17;;
21018;SDS011;10667;51.056;3.732;2022-09-09T05:37:20;11.30;;;3.00;;
21018;SDS011;10667;51.056;3.732;2022-09-09T05:39:46;15.38;;;3.90;;
21018;SDS011;10667;51.056;3.732;2022-09-09T05:42:11;11.27;;;3.17;;
21018;SDS011;10667;51.056;3.732;2022-09-09T05:44:37;19.20;;;3.42;;
21018;SDS011;10667;51.056;3.732;2022-09-09T05:47:03;16.40;;;3.38;;
21018;SDS011;10667;51.056;3.732;2022-09-09T05:49:28;14.18;;;3.78;;
21018;SDS011;10667;51.056;3.732;2022-09-09T05:51:55;11.20;;;3.22;;
21018;SDS011;10667;51.056;3.732;2022-09-09T05:54:20;12.05;;;3.47;;
21018;SDS011;10667;51.056;3.732;2022-09-09T05:56:46;14.23;;;3.47;;
21018;SDS011;10667;51.056;3.732;2022-09-09T05:59:12;19.88;;;4.15;;
21018;SDS011;10667;51.056;3.732;2022-09-09T06:01:38;12.23;;;2.70;;
21018;SDS011;10667;51.056;3.732;2022-09-09T06:04:07;12.77;;;3.20;;
21018;SDS011;10667;51.056;3.732;2022-09-09T06:06:34;16.38;;;3.47;;
21018;SDS011;10667;51.056;3.732;2022-09-09T06:09:01;14.82;;;4.07;;
21018;SDS011;10667;51.056;3.732;2022-09-09T06:11:32;18.27;;;3.42;;
21018;SDS011;10667;51.056;3.732;2022-09-09T06:13:59;24.08;;;4.07;;
21018;SDS011;10667;51.056;3.732;2022-09-09T06:16:26;23.25;;;4.85;;
21018;SDS011;10667;51.056;3.732;2022-09-09T06:18:53;19.92;;;4.15;;
21018;SDS011;10667;51.056;3.732;2022-09-09T06:21:25;18.20;;;3.72;;
21018;SDS011;10667;51.056;3.732;2022-09-09T06:23:51;24.58;;;4.05;;
21018;SDS011;10667;51.056;3.732;2022-09-09T06:26:21;17.40;;;3.95;;
21018;SDS011;10667;51.056;3.732;2022-09-09T06:28:50;17.50;;;4.25;;
21018;SDS011;10667;51.056;3.732;2022-09-09T06:31:19;19.33;;;5.00;;
21018;SDS011;10667;51.056;3.732;2022-09-09T06:33:49;20.10;;;4.80;;
21018;SDS011;10667;51.056;3.732;2022-09-09T06:36:21;20.48;;;4.40;;
21018;SDS011;10667;51.056;3.732;2022-09-09T06:38:52;19.25;;;4.70;;
21018;SDS011;10667;51.056;3.732;2022-09-09T06:41:18;15.90;;;4.00;;
21018;SDS011;10667;51.056;3.732;2022-09-09T06:43:45;14.18;;;4.15;;
21018;SDS011;10667;51.056;3.732;2022-09-09T06:46:12;13.43;;;3.88;;
21018;SDS011;10667;51.056;3.732;2022-09-09T06:48:40;14.27;;;3.97;;
21018;SDS011;10667;51.056;3.732;2022-09-09T06:51:12;19.10;;;4.45;;
21018;SDS011;10667;51.056;3.732;2022-09-09T06:53:41;10.70;;;3.58;;
21018;SDS011;10667;51.056;3.732;2022-09-09T06:58:36;13.32;;;3.75;;
21018;SDS011;10667;51.056;3.732;2022-09-09T07:01:08;15.93;;;4.18;;
21018;SDS011;10667;51.056;3.732;2022-09-09T07:03:34;19.17;;;4.05;;
21018;SDS011;10667;51.056;3.732;2022-09-09T07:06:01;15.35;;;4.18;;
21018;SDS011;10667;51.056;3.732;2022-09-09T07:08:26;16.95;;;3.83;;
21018;SDS011;10667;51.056;3.732;2022-09-09T07:10:53;15.27;;;4.15;;
21018;SDS011;10667;51.056;3.732;2022-09-09T07:13:25;13.73;;;4.10;;
21018;SDS011;10667;51.056;3.732;2022-09-09T07:15:52;14.88;;;3.53;;
21018;SDS011;10667;51.056;3.732;2022-09-09T07:18:18;15.52;;;3.50;;
21018;SDS011;10667;51.056;3.732;2022-09-09T07:20:52;14.20;;;3.40;;
21018;SDS011;10667;51.056;3.732;2022-09-09T07:23:20;17.15;;;3.55;;
21018;SDS011;10667;51.056;3.732;2022-09-09T07:25:45;12.32;;;3.40;;
21018;SDS011;10667;51.056;3.732;2022-09-09T07:28:12;13.52;;;3.28;;
21018;SDS011;10667;51.056;3.732;2022-09-09T07:30:38;15.60;;;3.50;;
21018;SDS011;10667;51.056;3.732;2022-09-09T07:33:04;9.00;;;2.58;;
21018;SDS011;10667;51.056;3.732;2022-09-09T07:35:30;9.57;;;2.63;;
21018;SDS011;10667;51.056;3.732;2022-09-09T07:37:56;14.70;;;3.25;;
21018;SDS011;10667;51.056;3.732;2022-09-09T07:40:23;16.55;;;3.40;;
21018;SDS011;10667;51.056;3.732;2022-09-09T07:42:52;14.15;;;3.25;;
21018;SDS011;10667;51.056;3.732;2022-09-09T07:45:18;13.55;;;3.38;;
21018;SDS011;10667;51.056;3.732;2022-09-09T07:47:44;14.85;;;3.30;;
21018;SDS011;10667;51.056;3.732;2022-09-09T07:50:10;14.48;;;2.92;;
21018;SDS011;10667;51.056;3.732;2022-09-09T07:52:36;15.27;;;3.08;;
21018;SDS011;10667;51.056;3.732;2022-09-09T07:55:02;15.65;;;2.88;;
21018;SDS011;10667;51.056;3.732;2022-09-09T07:57:29;10.50;;;3.10;;
21018;SDS011;10667;51.056;3.732;2022-09-09T07:59:57;10.23;;;3.03;;
21018;SDS011;10667;51.056;3.732;2022-09-09T08:02:24;11.90;;;2.67;;
21018;SDS011;10667;51.056;3.732;2022-09-09T08:04:50;14.35;;;3.03;;
21018;SDS011;10667;51.056;3.732;2022-09-09T08:07:16;15.20;;;3.20;;
21018;SDS011;10667;51.056;3.732;2022-09-09T08:09:43;11.40;;;2.97;;
21018;SDS011;10667;51.056;3.732;2022-09-09T08:12:08;18.30;;;3.88;;
21018;SDS011;10667;51.056;3.732;2022-09-09T08:14:35;11.65;;;2.67;;
21018;SDS011;10667;51.056;3.732;2022-09-09T08:17:01;16.90;;;3.50;;
21018;SDS011;10667;51.056;3.732;2022-09-09T08:19:27;15.48;;;3.40;;
21018;SDS011;10667;51.056;3.732;2022-09-09T08:21:59;9.80;;;3.25;;
21018;SDS011;10667;51.056;3.732;2022-09-09T08:24:26;14.32;;;3.95;;
21018;SDS011;10667;51.056;3.732;2022-09-09T08:26:52;12.05;;;3.42;;
21018;SDS011;10667;51.056;3.732;2022-09-09T08:29:18;20.00;;;4.75;;
21018;SDS011;10667;51.056;3.732;2022-09-09T08:31:52;17.42;;;3.10;;
21018;SDS011;10667;51.056;3.732;2022-09-09T08:34:22;16.48;;;3.47;;
21018;SDS011;10667;51.056;3.732;2022-09-09T08:36:49;9.20;;;2.95;;
21018;SDS011;10667;51.056;3.732;2022-09-09T08:39:18;12.55;;;3.15;;
21018;SDS011;10667;51.056;3.732;2022-09-09T08:55:47;11.02;;;2.50;;
21018;SDS011;10667;51.056;3.732;2022-09-09T09:11:06;9.30;;;2.72;;
21018;SDS011;10667;51.056;3.732;2022-09-09T09:16:23;7.07;;;2.10;;
21018;SDS011;10667;51.056;3.732;2022-09-09T09:18:51;10.88;;;3.15;;
21018;SDS011;10667;51.056;3.732;2022-09-09T09:23:53;10.93;;;2.85;;
21018;SDS011;10667;51.056;3.732;2022-09-09T09:26:25;17.25;;;2.80;;
21018;SDS011;10667;51.056;3.732;2022-09-09T09:29:01;9.75;;;2.25;;
21018;SDS011;10667;51.056;3.732;2022-09-09T09:31:37;9.38;;;2.55;;
21018;SDS011;10667;51.056;3.732;2022-09-09T09:34:03;8.57;;;2.63;;
21018;SDS011;10667;51.056;3.732;2022-09-09T09:36:38;6.88;;;2.40;;
21018;SDS011;10667;51.056;3.732;2022-09-09T09:39:21;12.07;;;2.50;;
21018;SDS011;10667;51.056;3.732;2022-09-09T09:41:54;13.57;;;3.08;;
21018;SDS011;10667;51.056;3.732;2022-09-09T09:44:22;6.65;;;2.22;;
21018;SDS011;10667;51.056;3.732;2022-09-09T09:46:52;8.48;;;2.10;;
21018;SDS011;10667;51.056;3.732;2022-09-09T09:49:30;15.15;;;2.65;;
21018;SDS011;10667;51.056;3.732;2022-09-09T09:52:00;9.73;;;2.63;;
21018;SDS011;10667;51.056;3.732;2022-09-09T09:54:29;11.27;;;2.17;;
21018;SDS011;10667;51.056;3.732;2022-09-09T09:57:12;7.45;;;2.42;;
21018;SDS011;10667;51.056;3.732;2022-09-09T09:59:41;11.73;;;2.90;;
21018;SDS011;10667;51.056;3.732;2022-09-09T10:02:14;7.32;;;2.22;;
21018;SDS011;10667;51.056;3.732;2022-09-09T10:04:43;6.93;;;2.15;;
21018;SDS011;10667;51.056;3.732;2022-09-09T10:07:21;6.05;;;1.70;;
21018;SDS011;10667;51.056;3.732;2022-09-09T10:09:50;7.22;;;2.20;;
21018;SDS011;10667;51.056;3.732;2022-09-09T10:18:12;5.05;;;2.00;;
21018;SDS011;10667;51.056;3.732;2022-09-09T10:21:18;8.90;;;2.13;;
21018;SDS011;10667;51.056;3.732;2022-09-09T10:29:47;4.63;;;2.00;;
21018;SDS011;10667;51.056;3.732;2022-09-09T10:35:02;6.13;;;2.05;;
21018;SDS011;10667;51.056;3.732;2022-09-09T10:38:24;8.75;;;2.03;;
21018;SDS011;10667;51.056;3.732;2022-09-09T10:40:43;8.60;;;1.95;;
21018;SDS011;10667;51.056;3.732;2022-09-09T10:46:23;8.95;;;2.30;;
21018;SDS011;10667;51.056;3.732;2022-09-09T10:57:48;6.00;;;1.80;;
21018;SDS011;10667;51.056;3.732;2022-09-09T11:00:21;6.03;;;2.08;;
21018;SDS011;10667;51.056;3.732;2022-09-09T11:02:50;4.70;;;1.70;;
21018;SDS011;10667;51.056;3.732;2022-09-09T11:05:22;8.73;;;2.00;;
21018;SDS011;10667;51.056;3.732;2022-09-09T11:07:59;3.92;;;1.67;;
21018;SDS011;10667;51.056;3.732;2022-09-09T11:10:45;6.00;;;1.92;;
21018;SDS011;10667;51.056;3.732;2022-09-09T11:15:53;4.30;;;1.73;;
21018;SDS011;10667;51.056;3.732;2022-09-09T11:18:25;7.78;;;1.90;;
21018;SDS011;10667;51.056;3.732;2022-09-09T11:20:56;10.23;;;1.98;;
21018;SDS011;10667;51.056;3.732;2022-09-09T11:23:28;5.60;;;1.83;;
21018;SDS011;10667;51.056;3.732;2022-09-09T11:26:15;10.82;;;1.50;;
21018;SDS011;10667;51.056;3.732;2022-09-09T11:40:30;4.13;;;1.63;;
21018;SDS011;10667;51.056;3.732;2022-09-09T11:43:01;6.55;;;1.10;;
21018;SDS011;10667;51.056;3.732;2022-09-09T11:45:33;2.83;;;1.20;;
21018;SDS011;10667;51.056;3.732;2022-09-09T11:48:01;1.60;;;0.88;;
21018;SDS011;10667;51.056;3.732;2022-09-09T11:50:34;3.03;;;1.13;;
21018;SDS011;10667;51.056;3.732;2022-09-09T11:53:17;6.63;;;1.10;;
21018;SDS011;10667;51.056;3.732;2022-09-09T11:55:48;4.38;;;1.15;;
21018;SDS011;10667;51.056;3.732;2022-09-09T11:58:39;2.88;;;1.30;;
21018;SDS011;10667;51.056;3.732;2022-09-09T12:01:29;6.43;;;1.65;;
21018;SDS011;10667;51.056;3.732;2022-09-09T12:04:02;4.53;;;1.30;;
21018;SDS011;10667;51.056;3.732;2022-09-09T12:06:44;2.92;;;1.80;;
21018;SDS011;10667;51.056;3.732;2022-09-09T12:12:27;2.95;;;1.10;;
21018;SDS011;10667;51.056;3.732;2022-09-09T12:17:24;8.95;;;2.20;;
21018;SDS011;10667;51.056;3.732;2022-09-09T12:20:02;5.45;;;1.50;;
21018;SDS011;10667;51.056;3.732;2022-09-09T12:25:45;5.13;;;1.55;;
21018;SDS011;10667;51.056;3.732;2022-09-09T12:33:37;4.07;;;1.33;;
21018;SDS011;10667;51.056;3.732;2022-09-09T12:36:11;5.13;;;1.30;;
21018;SDS011;10667;51.056;3.732;2022-09-09T12:38:43;4.97;;;1.70;;
21018;SDS011;10667;51.056;3.732;2022-09-09T12:41:20;5.65;;;1.52;;
21018;SDS011;10667;51.056;3.732;2022-09-09T12:43:50;4.13;;;1.40;;
21018;SDS011;10667;51.056;3.732;2022-09-09T12:48:56;2.45;;;1.33;;
21018;SDS011;10667;51.056;3.732;2022-09-09T12:51:32;3.38;;;1.30;;
21018;SDS011;10667;51.056;3.732;2022-09-09T12:53:59;2.67;;;1.35;;
21018;SDS011;10667;51.056;3.732;2022-09-09T12:56:26;5.72;;;1.52;;
21018;SDS011;10667;51.056;3.732;2022-09-09T12:58:55;6.13;;;2.00;;
21018;SDS011;10667;51.056;3.732;2022-09-09T13:01:25;6.40;;;1.75;;
21018;SDS011;10667;51.056;3.732;2022-09-09T13:03:56;6.97;;;1.65;;
21018;SDS011;10667;51.056;3.732;2022-09-09T13:06:26;5.18;;;1.58;;
21018;SDS011;10667;51.056;3.732;2022-09-09T13:08:56;5.78;;;1.88;;
21018;SDS011;10667;51.056;3.732;2022-09-09T13:11:38;3.33;;;1.48;;
21018;SDS011;10667;51.056;3.732;2022-09-09T13:14:13;6.80;;;1.95;;
21018;SDS011;10667;51.056;3.732;2022-09-09T13:16:58;6.05;;;1.63;;
21018;SDS011;10667;51.056;3.732;2022-09-09T13:19:25;4.57;;;1.60;;
21018;SDS011;10667;51.056;3.732;2022-09-09T13:21:53;4.57;;;1.95;;
21018;SDS011;10667;51.056;3.732;2022-09-09T13:24:41;4.07;;;1.42;;
21018;SDS011;10667;51.056;3.732;2022-09-09T13:27:25;5.53;;;1.40;;
21018;SDS011;10667;51.056;3.732;2022-09-09T13:33:05;6.20;;;1.45;;
21018;SDS011;10667;51.056;3.732;2022-09-09T13:35:34;4.88;;;1.00;;
21018;SDS011;10667;51.056;3.732;2022-09-09T13:38:09;6.38;;;1.40;;
21018;SDS011;10667;51.056;3.732;2022-09-09T13:40:38;6.97;;;1.50;;
21018;SDS011;10667;51.056;3.732;2022-09-09T13:43:04;3.33;;;1.30;;
21018;SDS011;10667;51.056;3.732;2022-09-09T13:45:30;5.88;;;1.15;;
21018;SDS011;10667;51.056;3.732;2022-09-09T13:47:56;3.85;;;1.20;;
21018;SDS011;10667;51.056;3.732;2022-09-09T13:50:26;2.97;;;1.25;;
21018;SDS011;10667;51.056;3.732;2022-09-09T13:52:54;5.35;;;1.35;;
21018;SDS011;10667;51.056;3.732;2022-09-09T13:55:23;5.72;;;1.10;;
21018;SDS011;10667;51.056;3.732;2022-09-09T13:57:53;2.33;;;1.08;;
21018;SDS011;10667;51.056;3.732;2022-09-09T14:00:20;2.92;;;1.13;;
21018;SDS011;10667;51.056;3.732;2022-09-09T14:02:47;5.25;;;1.17;;
21018;SDS011;10667;51.056;3.732;2022-09-09T14:05:13;3.33;;;1.25;;
21018;SDS011;10667;51.056;3.732;2022-09-09T14:07:41;3.90;;;1.30;;
21018;SDS011;10667;51.056;3.732;2022-09-09T14:10:08;4.07;;;1.30;;
21018;SDS011;10667;51.056;3.732;2022-09-09T14:12:34;6.50;;;1.33;;
21018;SDS011;10667;51.056;3.732;2022-09-09T14:15:01;2.65;;;1.10;;
21018;SDS011;10667;51.056;3.732;2022-09-09T14:17:31;3.72;;;1.35;;
21018;SDS011;10667;51.056;3.732;2022-09-09T14:19:57;5.70;;;1.30;;
21018;SDS011;10667;51.056;3.732;2022-09-09T14:22:23;3.00;;;1.23;;
21018;SDS011;10667;51.056;3.732;2022-09-09T14:24:50;3.55;;;1.40;;
21018;SDS011;10667;51.056;3.732;2022-09-09T14:27:16;5.53;;;1.30;;
21018;SDS011;10667;51.056;3.732;2022-09-09T14:29:43;3.17;;;1.50;;
21018;SDS011;10667;51.056;3.732;2022-09-09T14:32:10;1.90;;;1.17;;
21018;SDS011;10667;51.056;3.732;2022-09-09T14:34:36;5.47;;;1.30;;
21018;SDS011;10667;51.056;3.732;2022-09-09T14:37:02;4.00;;;1.10;;
21018;SDS011;10667;51.056;3.732;2022-09-09T14:39:28;7.93;;;1.55;;
21018;SDS011;10667;51.056;3.732;2022-09-09T14:41:53;3.40;;;1.75;;
21018;SDS011;10667;51.056;3.732;2022-09-09T14:44:19;5.35;;;1.10;;
21018;SDS011;10667;51.056;3.732;2022-09-09T14:46:46;3.38;;;1.00;;
21018;SDS011;10667;51.056;3.732;2022-09-09T14:49:12;2.95;;;1.20;;
21018;SDS011;10667;51.056;3.732;2022-09-09T14:51:38;3.88;;;0.93;;
21018;SDS011;10667;51.056;3.732;2022-09-09T14:54:04;3.22;;;0.93;;
21018;SDS011;10667;51.056;3.732;2022-09-09T14:56:31;4.25;;;1.10;;
21018;SDS011;10667;51.056;3.732;2022-09-09T14:58:59;6.97;;;1.00;;
21018;SDS011;10667;51.056;3.732;2022-09-09T15:01:26;2.22;;;0.80;;
21018;SDS011;10667;51.056;3.732;2022-09-09T15:03:53;2.53;;;1.10;;
21018;SDS011;10667;51.056;3.732;2022-09-09T15:06:24;1.88;;;1.00;;
21018;SDS011;10667;51.056;3.732;2022-09-09T15:08:51;4.72;;;1.50;;
21018;SDS011;10667;51.056;3.732;2022-09-09T15:11:18;2.65;;;1.30;;
21018;SDS011;10667;51.056;3.732;2022-09-09T15:13:45;2.95;;;1.20;;
21018;SDS011;10667;51.056;3.732;2022-09-09T15:18:39;6.82;;;1.50;;
21018;SDS011;10667;51.056;3.732;2022-09-09T15:21:08;8.73;;;1.40;;
21018;SDS011;10667;51.056;3.732;2022-09-09T15:23:38;3.85;;;1.15;;
21018;SDS011;10667;51.056;3.732;2022-09-09T15:26:05;6.55;;;1.80;;
21018;SDS011;10667;51.056;3.732;2022-09-09T15:28:32;5.28;;;1.25;;
21018;SDS011;10667;51.056;3.732;2022-09-09T15:31:04;4.90;;;1.25;;
21018;SDS011;10667;51.056;3.732;2022-09-09T15:33:35;1.10;;;0.80;;
21018;SDS011;10667;51.056;3.732;2022-09-09T15:38:47;3.22;;;1.10;;
21018;SDS011;10667;51.056;3.732;2022-09-09T15:41:14;3.25;;;1.02;;
21018;SDS011;10667;51.056;3.732;2022-09-09T15:43:46;4.65;;;1.10;;
21018;SDS011;10667;51.056;3.732;2022-09-09T15:46:25;4.05;;;1.10;;
21018;SDS011;10667;51.056;3.732;2022-09-09T15:49:03;6.03;;;1.23;;
21018;SDS011;10667;51.056;3.732;2022-09-09T15:51:30;3.80;;;1.27;;
21018;SDS011;10667;51.056;3.732;2022-09-09T15:53:59;4.68;;;1.67;;
21018;SDS011;10667;51.056;3.732;2022-09-09T15:56:25;3.38;;;1.27;;
21018;SDS011;10667;51.056;3.732;2022-09-09T15:58:53;4.22;;;1.25;;
21018;SDS011;10667;51.056;3.732;2022-09-09T16:01:20;4.88;;;1.75;;
21018;SDS011;10667;51.056;3.732;2022-09-09T16:03:46;3.53;;;1.52;;
21018;SDS011;10667;51.056;3.732;2022-09-09T16:06:13;4.20;;;1.38;;
21018;SDS011;10667;51.056;3.732;2022-09-09T16:08:40;3.08;;;1.38;;
21018;SDS011;10667;51.056;3.732;2022-09-09T16:11:17;3.90;;;1.50;;
21018;SDS011;10667;51.056;3.732;2022-09-09T16:13:48;4.47;;;1.70;;
21018;SDS011;10667;51.056;3.732;2022-09-09T16:16:16;4.82;;;1.50;;
21018;SDS011;10667;51.056;3.732;2022-09-09T16:18:48;4.50;;;1.40;;
21018;SDS011;10667;51.056;3.732;2022-09-09T16:21:21;2.20;;;1.60;;
21018;SDS011;10667;51.056;3.732;2022-09-09T16:23:49;3.70;;;2.13;;
21018;SDS011;10667;51.056;3.732;2022-09-09T16:26:16;5.13;;;1.50;;
21018;SDS011;10667;51.056;3.732;2022-09-09T16:28:43;2.28;;;1.50;;
21018;SDS011;10667;51.056;3.732;2022-09-09T16:31:22;6.40;;;1.45;;
21018;SDS011;10667;51.056;3.732;2022-09-09T16:33:48;3.08;;;1.50;;
21018;SDS011;10667;51.056;3.732;2022-09-09T16:36:16;5.18;;;1.90;;
21018;SDS011;10667;51.056;3.732;2022-09-09T16:38:43;5.78;;;1.90;;
21018;SDS011;10667;51.056;3.732;2022-09-09T16:41:10;3.15;;;1.63;;
21018;SDS011;10667;51.056;3.732;2022-09-09T16:43:38;4.22;;;2.17;;
21018;SDS011;10667;51.056;3.732;2022-09-09T16:46:23;6.22;;;1.92;;
21018;SDS011;10667;51.056;3.732;2022-09-09T16:48:49;7.13;;;2.25;;
21018;SDS011;10667;51.056;3.732;2022-09-09T16:51:16;4.95;;;2.15;;
21018;SDS011;10667;51.056;3.732;2022-09-09T16:53:44;5.32;;;2.13;;
21018;SDS011;10667;51.056;3.732;2022-09-09T16:56:15;6.97;;;2.13;;
21018;SDS011;10667;51.056;3.732;2022-09-09T16:58:42;6.90;;;2.45;;
21018;SDS011;10667;51.056;3.732;2022-09-09T17:01:10;4.03;;;2.03;;
21018;SDS011;10667;51.056;3.732;2022-09-09T17:03:39;5.45;;;2.28;;
21018;SDS011;10667;51.056;3.732;2022-09-09T17:06:09;14.05;;;4.00;;
21018;SDS011;10667;51.056;3.732;2022-09-09T17:08:36;13.00;;;4.18;;
21018;SDS011;10667;51.056;3.732;2022-09-09T17:11:03;20.25;;;5.47;;
21018;SDS011;10667;51.056;3.732;2022-09-09T17:13:38;11.40;;;3.80;;
21018;SDS011;10667;51.056;3.732;2022-09-09T17:16:04;21.40;;;6.70;;
21018;SDS011;10667;51.056;3.732;2022-09-09T17:18:30;7.18;;;3.72;;
21018;SDS011;10667;51.056;3.732;2022-09-09T17:20:56;12.70;;;4.88;;
21018;SDS011;10667;51.056;3.732;2022-09-09T17:23:28;8.05;;;3.67;;
21018;SDS011;10667;51.056;3.732;2022-09-09T17:25:58;7.00;;;3.63;;